createdAt,value
2018-07-07T00:00:06.229Z,5.80
2018-07-07T00:01:06.296Z,5.20
2018-07-07T00:02:06.193Z,5.80
2018-07-07T00:03:06.311Z,6.20
2018-07-07T00:04:06.152Z,5.70
2018-07-07T00:05:06.223Z,5.40
2018-07-07T00:06:06.114Z,6.80
2018-07-07T00:07:06.236Z,4.20
2018-07-07T00:08:06.073Z,4.90
2018-07-07T00:09:06.148Z,7.70
2018-07-07T00:10:06.037Z,4.50
2018-07-07T00:11:06.160Z,4.60
2018-07-07T00:12:05.997Z,5.30
2018-07-07T00:13:06.075Z,5.90
2018-07-07T00:14:05.956Z,4.60
2018-07-07T00:15:06.090Z,4.60
2018-07-07T00:16:05.917Z,5.30
2018-07-07T00:17:05.998Z,5.70
2018-07-07T00:18:05.879Z,6.30
2018-07-07T00:19:06.022Z,4.50
2018-07-07T00:20:05.844Z,4.80
2018-07-07T00:21:05.943Z,4.50
2018-07-07T00:22:05.801Z,5.00
2018-07-07T00:23:05.939Z,5.10
2018-07-07T00:24:05.795Z,6.40
2018-07-07T00:25:05.854Z,5.60
2018-07-07T00:26:05.721Z,3.80
2018-07-07T00:27:05.917Z,7.00
2018-07-07T00:28:05.682Z,6.40
2018-07-07T00:29:05.797Z,6.00
2018-07-07T00:30:05.641Z,7.30
2018-07-07T00:31:05.791Z,5.30
2018-07-07T00:32:05.602Z,5.60
2018-07-07T00:33:05.704Z,5.10
2018-07-07T00:34:05.562Z,5.00
2018-07-07T00:35:05.717Z,5.90
2018-07-07T00:36:05.527Z,5.30
2018-07-07T00:37:05.637Z,5.00
2018-07-07T00:38:05.483Z,6.50
2018-07-07T00:39:05.643Z,5.70
2018-07-07T00:40:05.442Z,4.50
2018-07-07T00:41:05.555Z,5.00
2018-07-07T00:42:05.434Z,5.70
2018-07-07T00:43:05.569Z,8.30
2018-07-07T00:44:05.361Z,6.50
2018-07-07T00:45:05.484Z,5.50
2018-07-07T00:46:05.327Z,5.20
2018-07-07T00:47:05.396Z,6.30
2018-07-07T00:48:05.275Z,5.70
2018-07-07T00:49:05.318Z,6.20
2018-07-07T00:50:05.245Z,5.10
2018-07-07T00:51:05.321Z,5.80
2018-07-07T00:52:05.203Z,4.70
2018-07-07T00:53:05.240Z,6.20
2018-07-07T00:54:05.174Z,5.80
2018-07-07T00:55:05.249Z,6.50
2018-07-07T00:56:05.128Z,5.90
2018-07-07T00:57:05.163Z,6.50
2018-07-07T00:58:05.085Z,5.00
2018-07-07T00:59:05.177Z,5.30
2018-07-07T01:00:05.043Z,5.30
2018-07-07T01:01:05.085Z,5.60
2018-07-07T01:02:05.005Z,6.10
2018-07-07T01:03:05.100Z,5.50
2018-07-07T01:04:04.961Z,8.20
2018-07-07T01:05:05.013Z,6.80
2018-07-07T01:06:04.921Z,5.40
2018-07-07T01:07:05.027Z,5.50
2018-07-07T01:08:04.883Z,4.40
2018-07-07T01:09:04.956Z,6.00
2018-07-07T01:10:04.840Z,4.30
2018-07-07T01:11:04.955Z,4.90
2018-07-07T01:12:04.800Z,5.20
2018-07-07T01:13:04.864Z,4.80
2018-07-07T01:14:04.764Z,5.20
2018-07-07T01:15:04.877Z,7.30
2018-07-07T01:16:04.720Z,7.00
2018-07-07T01:17:04.787Z,8.50
2018-07-07T01:18:04.677Z,6.00
2018-07-07T01:19:04.803Z,4.60
2018-07-07T01:20:04.638Z,6.00
2018-07-07T01:21:04.714Z,4.90
2018-07-07T01:22:04.601Z,5.30
2018-07-07T01:23:04.730Z,6.70
2018-07-07T01:24:04.562Z,5.70
2018-07-07T01:25:04.641Z,5.70
2018-07-07T01:26:04.516Z,6.30
2018-07-07T01:27:04.657Z,4.60
2018-07-07T01:28:04.475Z,6.90
2018-07-07T01:29:04.567Z,5.80
2018-07-07T01:30:04.439Z,6.50
2018-07-07T01:31:04.477Z,5.20
2018-07-07T01:32:04.394Z,5.80
2018-07-07T01:33:04.492Z,4.40
2018-07-07T01:34:04.354Z,4.60
2018-07-07T01:35:04.479Z,4.10
2018-07-07T01:36:07.071Z,5.50
2018-07-07T01:37:04.417Z,4.70
2018-07-07T01:38:04.278Z,4.30
2018-07-07T01:39:04.329Z,5.90
2018-07-07T01:40:04.228Z,6.90
2018-07-07T01:41:04.343Z,5.80
2018-07-07T01:42:04.189Z,4.90
2018-07-07T01:43:04.257Z,4.30
2018-07-07T01:44:04.152Z,5.10
2018-07-07T01:45:04.269Z,5.00
2018-07-07T01:46:04.107Z,5.30
2018-07-07T01:47:04.177Z,5.80
2018-07-07T01:48:04.063Z,5.30
2018-07-07T01:49:04.197Z,6.80
2018-07-07T01:50:04.026Z,6.60
2018-07-07T01:51:04.107Z,5.10
2018-07-07T01:52:03.983Z,5.00
2018-07-07T01:53:04.120Z,6.30
2018-07-07T01:54:03.940Z,6.60
2018-07-07T01:55:04.033Z,3.60
2018-07-07T01:56:03.899Z,5.20
2018-07-07T01:57:04.045Z,5.70
2018-07-07T01:58:03.861Z,6.80
2018-07-07T01:59:03.888Z,5.10
2018-07-07T02:00:03.818Z,5.10
2018-07-07T02:01:03.974Z,6.10
2018-07-07T02:02:03.777Z,5.50
2018-07-07T02:03:03.888Z,4.80
2018-07-07T02:04:03.728Z,4.50
2018-07-07T02:05:03.900Z,4.50
2018-07-07T02:06:03.694Z,5.60
2018-07-07T02:07:03.811Z,5.30
2018-07-07T02:08:03.648Z,6.20
2018-07-07T02:09:03.826Z,4.40
2018-07-07T02:10:03.614Z,4.60
2018-07-07T02:11:03.740Z,4.70
2018-07-07T02:12:03.568Z,6.70
2018-07-07T02:13:03.647Z,5.80
2018-07-07T02:14:03.528Z,6.20
2018-07-07T02:15:03.662Z,4.10
2018-07-07T02:16:03.488Z,3.80
2018-07-07T02:17:03.574Z,4.60
2018-07-07T02:18:03.446Z,4.90
2018-07-07T02:19:03.589Z,3.50
2018-07-07T02:20:03.405Z,4.90
2018-07-07T02:21:03.500Z,5.10
2018-07-07T02:22:03.363Z,5.00
2018-07-07T02:23:03.515Z,7.40
2018-07-07T02:24:03.324Z,7.10
2018-07-07T02:25:03.428Z,5.70
2018-07-07T02:26:03.276Z,5.70
2018-07-07T02:27:03.442Z,5.50
2018-07-07T02:28:03.239Z,5.50
2018-07-07T02:29:03.355Z,4.90
2018-07-07T02:30:03.198Z,3.50
2018-07-07T02:31:03.368Z,4.80
2018-07-07T02:32:03.163Z,5.80
2018-07-07T02:33:03.280Z,5.20
2018-07-07T02:34:03.112Z,4.80
2018-07-07T02:35:03.296Z,4.00
2018-07-07T02:36:03.074Z,7.10
2018-07-07T02:37:03.204Z,4.60
2018-07-07T02:38:03.054Z,4.30
2018-07-07T02:39:03.219Z,6.20
2018-07-07T02:40:02.992Z,4.60
2018-07-07T02:41:03.132Z,7.70
2018-07-07T02:42:02.958Z,6.30
2018-07-07T02:43:03.043Z,4.50
2018-07-07T02:44:02.909Z,6.90
2018-07-07T02:45:02.963Z,6.00
2018-07-07T02:46:02.866Z,5.60
2018-07-07T02:47:02.971Z,3.80
2018-07-07T02:48:02.820Z,4.40
2018-07-07T02:49:02.884Z,4.10
2018-07-07T02:50:02.789Z,4.50
2018-07-07T02:51:02.793Z,4.60
2018-07-07T02:52:02.732Z,6.10
2018-07-07T02:53:02.808Z,6.00
2018-07-07T02:54:02.701Z,6.20
2018-07-07T02:55:02.720Z,5.00
2018-07-07T02:56:02.668Z,3.60
2018-07-07T02:57:02.738Z,5.50
2018-07-07T02:58:02.622Z,3.80
2018-07-07T02:59:02.647Z,6.70
2018-07-07T03:00:02.593Z,6.50
2018-07-07T03:01:02.658Z,6.60
2018-07-07T03:02:02.539Z,5.90
2018-07-07T03:03:02.570Z,5.10
2018-07-07T03:04:02.498Z,6.00
2018-07-07T03:05:02.584Z,7.30
2018-07-07T03:06:02.456Z,6.20
2018-07-07T03:07:02.497Z,7.20
2018-07-07T03:08:02.410Z,6.70
2018-07-07T03:09:02.512Z,5.50
2018-07-07T03:10:02.360Z,5.80
2018-07-07T03:11:02.421Z,4.50
2018-07-07T03:12:02.326Z,4.40
2018-07-07T03:13:02.436Z,5.50
2018-07-07T03:14:02.283Z,5.00
2018-07-07T03:15:02.348Z,5.70
2018-07-07T03:16:02.252Z,4.50
2018-07-07T03:17:02.367Z,5.40
2018-07-07T03:18:02.195Z,4.40
2018-07-07T03:19:02.274Z,5.70
2018-07-07T03:20:02.171Z,4.20
2018-07-07T03:21:02.288Z,7.00
2018-07-07T03:22:02.122Z,4.30
2018-07-07T03:23:02.201Z,4.00
2018-07-07T03:24:02.081Z,4.60
2018-07-07T03:25:02.219Z,5.10
2018-07-07T03:26:02.042Z,7.10
2018-07-07T03:27:02.150Z,5.70
2018-07-07T03:28:02.004Z,4.90
2018-07-07T03:29:02.038Z,5.00
2018-07-07T03:30:01.967Z,6.10
2018-07-07T03:31:02.051Z,4.80
2018-07-07T03:32:01.915Z,6.80
2018-07-07T03:33:01.965Z,6.00
2018-07-07T03:34:01.870Z,5.40
2018-07-07T03:35:01.979Z,4.10
2018-07-07T03:36:01.822Z,5.90
2018-07-07T03:37:01.890Z,5.30
2018-07-07T03:38:01.815Z,5.80
2018-07-07T03:39:01.904Z,6.00
2018-07-07T03:40:01.742Z,3.80
2018-07-07T03:41:01.818Z,4.30
2018-07-07T03:42:01.709Z,5.00
2018-07-07T03:43:01.833Z,6.30
2018-07-07T03:44:01.660Z,4.60
2018-07-07T03:45:01.751Z,4.20
2018-07-07T03:46:01.628Z,5.70
2018-07-07T03:47:01.756Z,6.30
2018-07-07T03:48:01.577Z,5.00
2018-07-07T03:49:01.686Z,4.80
2018-07-07T03:50:01.538Z,5.50
2018-07-07T03:51:01.682Z,4.80
2018-07-07T03:52:01.495Z,5.90
2018-07-07T03:53:01.595Z,4.80
2018-07-07T03:54:01.453Z,3.70
2018-07-07T03:55:01.608Z,6.00
2018-07-07T03:56:01.411Z,4.90
2018-07-07T03:57:01.520Z,4.60
2018-07-07T03:58:01.371Z,3.50
2018-07-07T03:59:01.541Z,5.30
2018-07-07T04:00:01.326Z,5.50
2018-07-07T04:01:01.452Z,5.10
2018-07-07T04:02:01.287Z,5.50
2018-07-07T04:03:01.360Z,5.50
2018-07-07T04:04:01.243Z,6.00
2018-07-07T04:05:01.378Z,4.20
2018-07-07T04:06:01.201Z,4.10
2018-07-07T04:07:01.289Z,5.00
2018-07-07T04:08:01.153Z,4.80
2018-07-07T04:09:01.299Z,5.00
2018-07-07T04:10:01.131Z,5.00
2018-07-07T04:11:01.214Z,4.40
2018-07-07T04:12:01.077Z,4.60
2018-07-07T04:13:01.229Z,6.60
2018-07-07T04:14:01.034Z,4.20
2018-07-07T04:15:01.137Z,6.70
2018-07-07T04:16:00.993Z,6.50
2018-07-07T04:17:01.159Z,7.40
2018-07-07T04:18:00.950Z,4.10
2018-07-07T04:19:01.066Z,4.00
2018-07-07T04:20:00.938Z,5.20
2018-07-07T04:21:01.079Z,3.70
2018-07-07T04:22:00.866Z,4.80
2018-07-07T04:23:00.993Z,5.90
2018-07-07T04:24:00.827Z,5.30
2018-07-07T04:25:01.007Z,5.90
2018-07-07T04:26:00.781Z,6.10
2018-07-07T04:27:00.916Z,5.40
2018-07-07T04:28:00.740Z,5.50
2018-07-07T04:29:00.928Z,6.40
2018-07-07T04:30:00.698Z,7.00
2018-07-07T04:31:00.844Z,5.90
2018-07-07T04:32:00.655Z,5.50
2018-07-07T04:33:00.755Z,5.00
2018-07-07T04:34:00.613Z,6.90
2018-07-07T04:35:00.767Z,6.70
2018-07-07T04:36:00.571Z,7.60
2018-07-07T04:37:00.678Z,5.70
2018-07-07T04:38:00.532Z,6.30
2018-07-07T04:39:00.689Z,6.80
2018-07-07T04:40:00.515Z,6.50
2018-07-07T04:41:00.502Z,6.10
2018-07-07T04:42:00.445Z,7.90
2018-07-07T04:43:00.515Z,6.10
2018-07-07T04:44:00.403Z,4.80
2018-07-07T04:45:00.432Z,6.20
2018-07-07T04:46:00.391Z,7.30
2018-07-07T04:47:00.442Z,5.10
2018-07-07T04:48:00.346Z,5.40
2018-07-07T04:49:00.303Z,4.20
2018-07-07T04:50:00.373Z,4.70
2018-07-07T04:51:00.261Z,5.20
2018-07-07T04:52:00.271Z,6.10
2018-07-07T04:53:00.205Z,4.10
2018-07-07T04:54:00.286Z,7.20
2018-07-07T04:55:00.172Z,6.40
2018-07-07T04:56:00.201Z,5.80
2018-07-07T04:57:00.131Z,5.00
2018-07-07T04:58:00.212Z,4.60
2018-07-07T04:59:00.093Z,6.20
2018-07-07T05:00:00.130Z,4.30
2018-07-07T05:01:00.050Z,4.90
2018-07-07T05:02:00.141Z,5.00
2018-07-07T05:03:00.008Z,4.80
2018-07-07T05:04:00.065Z,5.10
2018-07-07T05:04:59.963Z,5.40
2018-07-07T05:06:00.067Z,5.20
2018-07-07T05:06:59.922Z,4.50
2018-07-07T05:07:59.978Z,4.40
2018-07-07T05:08:59.876Z,4.40
2018-07-07T05:10:00.011Z,4.20
2018-07-07T05:10:59.837Z,5.20
2018-07-07T05:11:59.905Z,3.90
2018-07-07T05:12:59.795Z,5.50
2018-07-07T05:13:59.920Z,6.30
2018-07-07T05:14:59.754Z,3.80
2018-07-07T05:15:59.832Z,4.30
2018-07-07T05:16:59.711Z,5.60
2018-07-07T05:17:59.847Z,6.60
2018-07-07T05:18:59.670Z,3.70
2018-07-07T05:19:59.780Z,6.20
2018-07-07T05:20:59.644Z,5.50
2018-07-07T05:21:59.674Z,5.60
2018-07-07T05:22:59.587Z,3.60
2018-07-07T05:23:59.684Z,5.00
2018-07-07T05:24:59.555Z,4.20
2018-07-07T05:25:59.593Z,5.00
2018-07-07T05:26:59.507Z,7.50
2018-07-07T05:27:59.611Z,6.00
2018-07-07T05:28:59.460Z,5.80
2018-07-07T05:29:59.520Z,7.30
2018-07-07T05:30:59.421Z,5.60
2018-07-07T05:31:59.581Z,5.90
2018-07-07T05:32:59.374Z,5.40
2018-07-07T05:33:59.445Z,5.20
2018-07-07T05:34:59.332Z,4.20
2018-07-07T05:35:59.519Z,4.60
2018-07-07T05:36:59.293Z,5.70
2018-07-07T05:37:59.374Z,5.70
2018-07-07T05:38:59.250Z,7.30
2018-07-07T05:39:59.386Z,6.40
2018-07-07T05:40:59.209Z,5.70
2018-07-07T05:41:59.301Z,6.10
2018-07-07T05:42:59.167Z,5.00
2018-07-07T05:43:59.311Z,4.90
2018-07-07T05:44:59.125Z,5.30
2018-07-07T05:45:59.234Z,5.40
2018-07-07T05:46:59.086Z,4.90
2018-07-07T05:47:59.237Z,5.80
2018-07-07T05:48:59.044Z,6.30
2018-07-07T05:49:59.102Z,6.40
2018-07-07T05:50:59.004Z,4.50
2018-07-07T05:51:59.162Z,4.30
2018-07-07T05:52:58.976Z,4.70
2018-07-07T05:53:59.075Z,5.00
2018-07-07T05:54:58.921Z,6.30
2018-07-07T05:55:58.986Z,6.80
2018-07-07T05:56:58.879Z,4.30
2018-07-07T05:57:59.000Z,4.10
2018-07-07T05:58:58.839Z,5.60
2018-07-07T05:59:58.914Z,5.20
2018-07-07T06:00:58.797Z,4.20
2018-07-07T06:01:58.931Z,5.50
2018-07-07T06:02:58.762Z,4.60
2018-07-07T06:03:58.863Z,6.20
2018-07-07T06:04:58.717Z,4.20
2018-07-07T06:05:58.855Z,5.30
2018-07-07T06:06:58.679Z,3.70
2018-07-07T06:07:58.763Z,4.60
2018-07-07T06:08:58.634Z,8.40
2018-07-07T06:09:58.778Z,5.40
2018-07-07T06:10:58.594Z,5.70
2018-07-07T06:11:58.690Z,6.30
2018-07-07T06:12:58.551Z,4.90
2018-07-07T06:13:58.704Z,5.10
2018-07-07T06:14:58.514Z,4.90
2018-07-07T06:15:58.615Z,5.20
2018-07-07T06:16:58.476Z,5.90
2018-07-07T06:17:58.631Z,7.80
2018-07-07T06:18:58.430Z,6.30
2018-07-07T06:19:58.543Z,6.70
2018-07-07T06:20:58.390Z,5.70
2018-07-07T06:21:58.617Z,4.60
2018-07-07T06:22:58.346Z,4.60
2018-07-07T06:23:58.473Z,3.40
2018-07-07T06:24:58.311Z,7.10
2018-07-07T06:25:58.482Z,6.30
2018-07-07T06:26:58.269Z,5.50
2018-07-07T06:27:58.395Z,4.70
2018-07-07T06:28:58.225Z,4.60
2018-07-07T06:29:58.408Z,5.20
2018-07-07T06:30:58.183Z,4.80
2018-07-07T06:31:58.321Z,6.00
2018-07-07T06:32:58.150Z,5.20
2018-07-07T06:33:58.124Z,7.10
2018-07-07T06:34:58.131Z,6.40
2018-07-07T06:35:58.082Z,7.20
2018-07-07T06:36:58.144Z,5.90
2018-07-07T06:37:58.044Z,5.80
2018-07-07T06:38:58.020Z,5.30
2018-07-07T06:39:58.012Z,6.30
2018-07-07T06:40:58.067Z,4.10
2018-07-07T06:41:57.959Z,5.70
2018-07-07T06:42:57.982Z,6.70
2018-07-07T06:43:57.924Z,6.00
2018-07-07T06:44:57.990Z,7.20
2018-07-07T06:45:57.881Z,7.60
2018-07-07T06:46:57.898Z,5.10
2018-07-07T06:47:57.839Z,6.60
2018-07-07T06:48:57.917Z,7.30
2018-07-07T06:49:57.800Z,5.00
2018-07-07T06:50:57.823Z,7.80
2018-07-07T06:51:57.760Z,6.20
2018-07-07T06:52:57.835Z,8.30
2018-07-07T06:53:57.887Z,7.10
2018-07-07T06:54:57.748Z,7.70
2018-07-07T06:55:57.677Z,7.90
2018-07-07T06:56:57.753Z,6.80
2018-07-07T06:57:57.637Z,8.80
2018-07-07T06:58:57.694Z,7.20
2018-07-07T06:59:57.628Z,7.10
2018-07-07T07:00:57.710Z,7.00
2018-07-07T07:01:57.559Z,6.10
2018-07-07T07:02:57.620Z,6.80
2018-07-07T07:03:57.517Z,7.90
2018-07-07T07:04:57.497Z,6.70
2018-07-07T07:05:57.536Z,6.40
2018-07-07T07:06:57.461Z,5.80
2018-07-07T07:07:57.552Z,9.00
2018-07-07T07:08:57.417Z,7.30
2018-07-07T07:09:57.464Z,7.30
2018-07-07T07:10:57.378Z,9.10
2018-07-07T07:11:57.466Z,8.10
2018-07-07T07:12:57.340Z,9.50
2018-07-07T07:13:57.350Z,5.40
2018-07-07T07:14:57.298Z,7.30
2018-07-07T07:15:57.362Z,7.60
2018-07-07T07:16:57.258Z,5.40
2018-07-07T07:17:57.325Z,6.40
2018-07-07T07:18:57.220Z,6.40
2018-07-07T07:19:57.343Z,6.50
2018-07-07T07:20:57.199Z,7.30
2018-07-07T07:21:57.242Z,6.30
2018-07-07T07:22:57.140Z,5.00
2018-07-07T07:23:57.261Z,4.00
2018-07-07T07:24:57.103Z,4.70
2018-07-07T07:25:57.188Z,5.10
2018-07-07T07:26:57.062Z,5.90
2018-07-07T07:27:57.181Z,4.10
2018-07-07T07:28:57.021Z,4.30
2018-07-07T07:29:57.092Z,4.60
2018-07-07T07:30:56.983Z,6.30
2018-07-07T07:31:57.121Z,5.80
2018-07-07T07:32:56.977Z,4.80
2018-07-07T07:33:57.037Z,4.70
2018-07-07T07:34:56.909Z,3.90
2018-07-07T07:35:57.033Z,5.50
2018-07-07T07:36:56.939Z,5.60
2018-07-07T07:37:56.962Z,5.30
2018-07-07T07:38:56.828Z,4.80
2018-07-07T07:39:56.965Z,3.30
2018-07-07T07:40:56.786Z,5.10
2018-07-07T07:41:56.872Z,5.80
2018-07-07T07:42:56.751Z,4.40
2018-07-07T07:43:56.886Z,4.70
2018-07-07T07:44:56.711Z,4.70
2018-07-07T07:45:56.798Z,5.30
2018-07-07T07:46:56.677Z,5.40
2018-07-07T07:47:56.814Z,3.80
2018-07-07T07:48:56.631Z,4.90
2018-07-07T07:49:56.727Z,6.70
2018-07-07T07:50:56.603Z,5.70
2018-07-07T07:51:56.742Z,5.60
2018-07-07T07:52:56.556Z,4.50
2018-07-07T07:53:56.653Z,6.30
2018-07-07T07:54:56.521Z,5.30
2018-07-07T07:55:56.665Z,5.70
2018-07-07T07:56:56.481Z,5.80
2018-07-07T07:57:56.579Z,5.40
2018-07-07T07:58:56.446Z,4.60
2018-07-07T07:59:56.594Z,5.40
2018-07-07T08:00:56.405Z,9.10
2018-07-07T08:01:56.504Z,7.60
2018-07-07T08:02:56.394Z,7.70
2018-07-07T08:03:56.518Z,8.80
2018-07-07T08:04:56.402Z,7.80
2018-07-07T08:05:56.430Z,10.10
2018-07-07T08:06:56.291Z,7.80
2018-07-07T08:07:56.440Z,6.80
2018-07-07T08:08:56.258Z,5.50
2018-07-07T08:09:56.355Z,10.10
2018-07-07T08:10:56.216Z,5.90
2018-07-07T08:11:56.372Z,7.10
2018-07-07T08:12:56.180Z,6.30
2018-07-07T08:13:56.283Z,6.10
2018-07-07T08:14:56.141Z,7.00
2018-07-07T08:15:56.293Z,4.50
2018-07-07T08:16:56.105Z,5.20
2018-07-07T08:17:56.202Z,5.00
2018-07-07T08:18:56.075Z,6.30
2018-07-07T08:19:56.240Z,5.90
2018-07-07T08:20:56.034Z,6.70
2018-07-07T08:21:56.135Z,6.80
2018-07-07T08:22:56.034Z,10.50
2018-07-07T08:23:56.149Z,6.70
2018-07-07T08:24:55.958Z,8.40
2018-07-07T08:25:56.059Z,8.60
2018-07-07T08:26:55.918Z,7.60
2018-07-07T08:27:56.071Z,5.40
2018-07-07T08:28:55.872Z,6.40
2018-07-07T08:29:56.090Z,6.20
2018-07-07T08:30:55.847Z,6.90
2018-07-07T08:31:55.994Z,5.60
2018-07-07T08:32:55.809Z,4.90
2018-07-07T08:33:55.909Z,7.60
2018-07-07T08:34:55.771Z,5.10
2018-07-07T08:35:55.823Z,6.90
2018-07-07T08:36:55.736Z,5.00
2018-07-07T08:37:55.835Z,3.90
2018-07-07T08:38:55.699Z,6.60
2018-07-07T08:39:55.748Z,5.30
2018-07-07T08:40:55.662Z,5.20
2018-07-07T08:41:55.862Z,6.10
2018-07-07T08:42:55.625Z,7.10
2018-07-07T08:43:55.672Z,4.90
2018-07-07T08:44:55.587Z,4.80
2018-07-07T08:45:55.689Z,5.00
2018-07-07T08:46:55.557Z,5.10
2018-07-07T08:47:55.598Z,9.30
2018-07-07T08:48:55.515Z,6.40
2018-07-07T08:49:55.616Z,5.00
2018-07-07T08:50:55.486Z,5.30
2018-07-07T08:51:55.524Z,5.00
2018-07-07T08:52:55.448Z,6.20
2018-07-07T08:53:55.539Z,5.90
2018-07-07T08:54:55.409Z,5.70
2018-07-07T08:55:55.451Z,6.50
2018-07-07T08:56:55.374Z,5.30
2018-07-07T08:57:55.467Z,5.00
2018-07-07T08:58:55.337Z,5.20
2018-07-07T08:59:55.463Z,4.20
2018-07-07T09:00:55.318Z,5.90
2018-07-07T09:01:55.390Z,5.10
2018-07-07T09:02:55.266Z,3.50
2018-07-07T09:03:55.303Z,5.20
2018-07-07T09:04:55.243Z,4.50
2018-07-07T09:05:55.318Z,3.70
2018-07-07T09:06:55.197Z,4.90
2018-07-07T09:07:55.230Z,3.10
2018-07-07T09:08:55.165Z,3.00
2018-07-07T09:09:55.244Z,4.50
2018-07-07T09:10:55.128Z,6.00
2018-07-07T09:11:55.262Z,5.90
2018-07-07T09:12:55.092Z,3.00
2018-07-07T09:13:55.184Z,3.50
2018-07-07T09:14:55.060Z,3.90
2018-07-07T09:15:55.182Z,3.40
2018-07-07T09:16:55.029Z,3.30
2018-07-07T09:17:55.095Z,3.00
2018-07-07T09:18:54.994Z,3.00
2018-07-07T09:19:55.127Z,2.80
2018-07-07T09:20:54.963Z,1.90
2018-07-07T09:21:55.022Z,3.30
2018-07-07T09:22:54.926Z,3.60
2018-07-07T09:23:55.035Z,3.60
2018-07-07T09:24:54.891Z,2.90
2018-07-07T09:25:54.954Z,3.40
2018-07-07T09:26:54.860Z,4.00
2018-07-07T09:27:54.963Z,3.70
2018-07-07T09:28:54.826Z,3.80
2018-07-07T09:29:54.975Z,3.30
2018-07-07T09:30:54.801Z,3.40
2018-07-07T09:31:54.886Z,4.20
2018-07-07T09:32:54.762Z,3.10
2018-07-07T09:33:54.903Z,3.50
2018-07-07T09:34:54.731Z,2.90
2018-07-07T09:35:54.815Z,4.30
2018-07-07T09:36:54.701Z,2.60
2018-07-07T09:37:54.826Z,3.20
2018-07-07T09:38:54.707Z,2.20
2018-07-07T09:39:54.736Z,4.30
2018-07-07T09:40:54.640Z,3.80
2018-07-07T09:41:54.755Z,3.40
2018-07-07T09:42:54.709Z,5.30
2018-07-07T09:43:54.587Z,2.90
2018-07-07T09:44:54.615Z,3.20
2018-07-07T09:45:54.558Z,3.30
2018-07-07T09:46:54.615Z,3.90
2018-07-07T09:47:54.535Z,3.70
2018-07-07T09:48:54.525Z,2.90
2018-07-07T09:49:54.496Z,3.20
2018-07-07T09:50:54.538Z,3.20
2018-07-07T09:51:54.465Z,3.20
2018-07-07T09:52:54.550Z,3.90
2018-07-07T09:53:54.433Z,3.70
2018-07-07T09:54:54.459Z,3.10
2018-07-07T09:55:54.404Z,4.90
2018-07-07T09:56:54.473Z,4.40
2018-07-07T09:57:54.387Z,3.00
2018-07-07T09:58:54.385Z,4.10
2018-07-07T09:59:54.344Z,2.40
2018-07-07T10:00:54.398Z,2.90
2018-07-07T10:01:54.374Z,2.70
2018-07-07T10:02:54.408Z,2.70
2018-07-07T10:03:54.275Z,3.80
2018-07-07T10:04:54.322Z,3.20
2018-07-07T10:05:54.268Z,4.90
2018-07-07T10:06:54.333Z,2.60
2018-07-07T10:07:54.228Z,2.90
2018-07-07T10:08:54.240Z,3.10
2018-07-07T10:09:54.205Z,3.00
2018-07-07T10:10:54.258Z,4.00
2018-07-07T10:11:54.170Z,3.30
2018-07-07T10:12:54.268Z,3.30
2018-07-07T10:13:54.144Z,3.60
2018-07-07T10:14:54.180Z,2.80
2018-07-07T10:15:54.116Z,2.60
2018-07-07T10:16:54.189Z,3.20
2018-07-07T10:17:54.086Z,2.80
2018-07-07T10:18:54.099Z,2.60
2018-07-07T10:19:54.085Z,2.60
2018-07-07T10:20:54.114Z,4.20
2018-07-07T10:21:54.033Z,3.60
2018-07-07T10:22:54.141Z,4.20
2018-07-07T10:23:53.996Z,2.80
2018-07-07T10:24:54.032Z,2.70
2018-07-07T10:25:53.976Z,2.10
2018-07-07T10:26:54.045Z,2.70
2018-07-07T10:27:53.948Z,3.60
2018-07-07T10:28:53.955Z,2.40
2018-07-07T10:29:53.922Z,2.80
2018-07-07T10:30:53.968Z,2.90
2018-07-07T10:31:53.896Z,3.40
2018-07-07T10:32:54.021Z,2.80
2018-07-07T10:33:53.870Z,2.20
2018-07-07T10:34:53.885Z,3.00
2018-07-07T10:35:53.843Z,3.60
2018-07-07T10:36:53.904Z,2.90
2018-07-07T10:37:53.817Z,4.00
2018-07-07T10:38:53.913Z,2.00
2018-07-07T10:39:53.793Z,3.20
2018-07-07T10:40:53.828Z,4.40
2018-07-07T10:41:53.765Z,3.70
2018-07-07T10:42:53.839Z,4.30
2018-07-07T10:43:53.741Z,2.30
2018-07-07T10:44:53.752Z,4.00
2018-07-07T10:45:53.940Z,2.50
2018-07-07T10:46:53.773Z,3.40
2018-07-07T10:47:53.689Z,3.30
2018-07-07T10:48:53.811Z,2.90
2018-07-07T10:49:53.669Z,2.60
2018-07-07T10:50:53.687Z,4.50
2018-07-07T10:51:53.639Z,2.30
2018-07-07T10:52:53.704Z,3.30
2018-07-07T10:53:53.614Z,2.20
2018-07-07T10:54:53.708Z,2.70
2018-07-07T10:55:53.599Z,3.10
2018-07-07T10:56:53.617Z,3.30
2018-07-07T10:57:53.567Z,3.10
2018-07-07T10:58:53.635Z,3.40
2018-07-07T10:59:53.540Z,3.60
2018-07-07T11:00:53.643Z,3.90
2018-07-07T11:01:53.530Z,2.60
2018-07-07T11:02:53.564Z,2.80
2018-07-07T11:03:53.495Z,2.80
2018-07-07T11:04:53.572Z,2.60
2018-07-07T11:05:53.468Z,3.20
2018-07-07T11:06:53.476Z,2.90
2018-07-07T11:07:53.445Z,4.60
2018-07-07T11:08:53.487Z,3.40
2018-07-07T11:09:53.421Z,2.70
2018-07-07T11:10:53.501Z,2.50
2018-07-07T11:11:53.496Z,2.50
2018-07-07T11:12:53.432Z,5.50
2018-07-07T11:13:53.381Z,5.80
2018-07-07T11:14:53.425Z,6.80
2018-07-07T11:15:53.350Z,7.30
2018-07-07T11:16:53.440Z,10.30
2018-07-07T11:17:53.330Z,3.40
2018-07-07T11:18:53.351Z,3.70
2018-07-07T11:19:53.328Z,2.40
2018-07-07T11:20:53.363Z,2.80
2018-07-07T11:21:53.282Z,1.90
2018-07-07T11:22:53.374Z,3.90
2018-07-07T11:23:53.258Z,3.30
2018-07-07T11:24:53.285Z,2.50
2018-07-07T11:25:53.261Z,3.00
2018-07-07T11:26:53.300Z,3.30
2018-07-07T11:27:53.213Z,4.80
2018-07-07T11:28:53.327Z,4.20
2018-07-07T11:29:53.274Z,3.40
2018-07-07T11:30:53.222Z,2.80
2018-07-07T11:31:53.167Z,4.40
2018-07-07T11:32:53.233Z,3.10
2018-07-07T11:33:53.160Z,3.40
2018-07-07T11:34:53.243Z,2.50
2018-07-07T11:35:53.123Z,1.90
2018-07-07T11:36:53.212Z,2.10
2018-07-07T11:37:53.090Z,1.60
2018-07-07T11:38:53.189Z,3.40
2018-07-07T11:39:53.076Z,2.90
2018-07-07T11:40:53.178Z,4.10
2018-07-07T11:41:53.057Z,2.20
2018-07-07T11:42:53.082Z,1.30
2018-07-07T11:43:53.034Z,3.90
2018-07-07T11:44:53.099Z,1.50
2018-07-07T11:45:53.088Z,3.40
2018-07-07T11:46:53.111Z,2.20
2018-07-07T11:47:52.984Z,2.40
2018-07-07T11:48:53.021Z,2.70
2018-07-07T11:49:52.973Z,2.70
2018-07-07T11:50:53.033Z,2.20
2018-07-07T11:51:52.946Z,6.80
2018-07-07T11:52:53.047Z,5.00
2018-07-07T11:53:52.928Z,5.70
2018-07-07T11:54:52.958Z,4.70
2018-07-07T11:55:52.906Z,8.40
2018-07-07T11:56:52.969Z,5.30
2018-07-07T11:57:52.881Z,4.40
2018-07-07T11:58:52.982Z,4.20
2018-07-07T11:59:52.864Z,2.40
2018-07-07T12:00:52.978Z,8.00
2018-07-07T12:01:52.845Z,3.40
2018-07-07T12:02:52.992Z,3.30
2018-07-07T12:03:52.824Z,3.10
2018-07-07T12:04:52.927Z,4.50
2018-07-07T12:05:52.801Z,3.80
2018-07-07T12:06:52.790Z,2.70
2018-07-07T12:08:00.830Z,2.50
2018-07-07T12:08:52.767Z,3.00
2018-07-07T12:09:52.952Z,1.90
2018-07-07T12:10:52.748Z,6.20
2018-07-07T12:11:52.851Z,6.00
2018-07-07T12:12:52.727Z,3.10
2018-07-07T12:13:52.765Z,2.80
2018-07-07T12:14:52.714Z,4.10
2018-07-07T12:15:52.830Z,4.00
2018-07-07T12:16:52.685Z,2.70
2018-07-07T12:17:52.700Z,3.50
2018-07-07T12:18:52.668Z,3.80
2018-07-07T12:19:52.663Z,2.10
2018-07-07T12:20:52.649Z,2.80
2018-07-07T12:21:52.817Z,1.50
2018-07-07T12:22:52.629Z,2.70
2018-07-07T12:23:52.834Z,1.90
2018-07-07T12:24:52.635Z,2.40
2018-07-07T12:25:52.595Z,2.80
2018-07-07T12:26:52.647Z,1.90
2018-07-07T12:27:52.577Z,3.80
2018-07-07T12:28:52.714Z,2.70
2018-07-07T12:29:52.557Z,2.60
2018-07-07T12:30:52.549Z,4.00
2018-07-07T12:31:52.538Z,2.70
2018-07-07T12:32:52.590Z,2.80
2018-07-07T12:33:52.520Z,1.80
2018-07-07T12:34:52.604Z,2.40
2018-07-07T12:35:52.499Z,1.40
2018-07-07T12:36:52.517Z,1.80
2018-07-07T12:37:52.501Z,3.40
2018-07-07T12:38:52.533Z,3.70
2018-07-07T12:39:52.465Z,2.10
2018-07-07T12:40:52.599Z,4.30
2018-07-07T12:41:52.445Z,2.10
2018-07-07T12:42:52.461Z,2.90
2018-07-07T12:43:52.422Z,2.00
2018-07-07T12:44:52.506Z,5.90
2018-07-07T12:45:52.431Z,4.30
2018-07-07T12:46:52.495Z,4.80
2018-07-07T12:47:52.383Z,3.10
2018-07-07T12:48:52.396Z,3.10
2018-07-07T12:49:52.353Z,2.60
2018-07-07T12:50:52.411Z,2.60
2018-07-07T12:51:52.355Z,2.70
2018-07-07T12:52:52.427Z,2.70
2018-07-07T12:53:52.325Z,2.30
2018-07-07T12:54:52.344Z,1.60
2018-07-07T12:55:52.352Z,2.90
2018-07-07T12:56:52.351Z,3.00
2018-07-07T12:57:52.287Z,3.30
2018-07-07T12:58:52.365Z,3.40
2018-07-07T12:59:52.265Z,5.50
2018-07-07T13:00:52.281Z,3.40
2018-07-07T13:01:52.247Z,2.60
2018-07-07T13:02:52.333Z,3.50
2018-07-07T13:03:52.227Z,2.80
2018-07-07T13:04:52.310Z,2.70
2018-07-07T13:05:52.208Z,3.20
2018-07-07T13:06:52.249Z,2.10
2018-07-07T13:07:52.193Z,3.40
2018-07-07T13:08:52.231Z,2.70
2018-07-07T13:09:52.171Z,3.60
2018-07-07T13:10:52.241Z,3.60
2018-07-07T13:11:52.157Z,2.30
2018-07-07T13:12:52.185Z,3.20
2018-07-07T13:13:52.129Z,2.40
2018-07-07T13:14:52.175Z,2.90
2018-07-07T13:15:52.108Z,2.80
2018-07-07T13:16:52.191Z,3.20
2018-07-07T13:17:52.096Z,4.10